Time;durP1;ratioP1;P1;durP2;ratioP2;P2;SDS_P1;SDS_P2;PMS_P1;PMS_P2;Temp;Humidity;BMP_temperature;BMP_pressure;BME280_temperature;BME280_humidity;BME280_pressure;Samples;Min_cycle;Max_cycle;Signal;HPM_P1;HPM_P2
2021/10/30 00:00:11;;;;;;;;;;;13.80;99.90;;;;;;6182269;23;19900;-86
2021/10/30 00:02:37;;;;;;;;;;;13.70;99.90;;;;;;6182334;23;19968;-86
2021/10/30 00:05:03;;;;;;;;;;;13.80;99.90;;;;;;6182326;23;19900;-86
2021/10/30 00:07:29;;;;;;;;;;;13.80;99.90;;;;;;6183087;23;19927;-85
2021/10/30 00:09:54;;;;;;;;;;;13.80;99.90;;;;;;6182474;23;19923;-86
2021/10/30 00:12:20;;;;;;;;;;;13.80;99.90;;;;;;6181158;23;19908;-86
2021/10/30 00:14:48;;;;;;;;;;;13.70;99.90;;;;;;6182248;23;19904;-85
2021/10/30 00:17:13;;;;;;;;;;;13.80;99.90;;;;;;6182490;23;19934;-86
2021/10/30 00:19:39;;;;;;;;;;;13.80;99.90;;;;;;6182334;23;19904;-86
2021/10/30 00:22:05;;;;;;;;;;;13.80;99.90;;;;;;6156004;23;19896;-86
2021/10/30 00:24:33;;;;;;;;;;;13.80;99.90;;;;;;6182234;23;20424;-87
2021/10/30 00:26:59;;;;;;;;;;;13.80;99.90;;;;;;6181940;23;20395;-86
2021/10/30 00:29:25;;;;;;;;;;;13.70;99.90;;;;;;6182109;23;19901;-86
2021/10/30 00:31:51;;;;;;;;;;;13.70;99.90;;;;;;6181867;23;19991;-85
2021/10/30 00:34:16;;;;;;;;;;;13.70;99.90;;;;;;6182309;23;19900;-85
2021/10/30 00:36:42;;;;;;;;;;;13.80;99.90;;;;;;6181886;23;19907;-86
2021/10/30 00:39:08;;;;;;;;;;;13.80;99.90;;;;;;6182280;23;19907;-85
2021/10/30 00:41:34;;;;;;;;;;;13.80;99.90;;;;;;6182112;23;19954;-85
2021/10/30 00:44:05;;;;;;;;;;;13.80;99.90;;;;;;6182191;23;19905;-86
2021/10/30 00:46:31;;;;;;;;;;;13.80;99.90;;;;;;6182298;23;19979;-86
2021/10/30 00:48:57;;;;;;;;;;;13.70;99.90;;;;;;6182071;23;20502;-86
2021/10/30 00:51:22;;;;;;;;;;;13.70;99.90;;;;;;6182288;23;19951;-87
2021/10/30 00:53:48;;;;;;;;;;;13.80;99.90;;;;;;6182371;23;19955;-86
2021/10/30 00:56:14;;;;;;;;;;;13.80;99.90;;;;;;6182435;23;19950;-85
2021/10/30 00:58:40;;;;;;;;;;;13.80;99.90;;;;;;6182455;23;19900;-86
2021/10/30 01:01:06;;;;;;;;;;;13.80;99.90;;;;;;6182012;23;20238;-86
2021/10/30 01:03:33;;;;;;;;;;;13.80;99.90;;;;;;6182509;23;19900;-86
2021/10/30 01:05:59;;;;;;;;;;;13.80;99.90;;;;;;6182193;23;19904;-86
2021/10/30 01:08:24;;;;;;;;;;;13.80;99.90;;;;;;6181378;23;19900;-86
2021/10/30 01:10:50;;;;;;;;;;;13.80;99.90;;;;;;6181946;23;19908;-85
2021/10/30 01:13:17;;;;;;;;;;;13.80;99.90;;;;;;6182051;23;19908;-86
2021/10/30 01:15:42;;;;;;;;;;;13.90;99.90;;;;;;6181888;23;19907;-85
2021/10/30 01:18:08;;;;;;;;;;;13.90;99.90;;;;;;6181999;23;19901;-86
2021/10/30 01:20:34;;;;;;;;;;;13.90;99.90;;;;;;6180465;23;19907;-85
2021/10/30 01:23:00;;;;;;;;;;;13.90;99.90;;;;;;6182229;23;19900;-86
2021/10/30 01:25:26;;;;;;;;;;;14.00;99.90;;;;;;6180957;23;19900;-89
2021/10/30 01:27:52;;;;;;;;;;;13.90;99.90;;;;;;6183957;23;19919;-85
2021/10/30 01:30:19;;;;;;;;;;;13.90;99.90;;;;;;6183713;23;19901;-86
2021/10/30 01:32:56;;;;;;;;;;;13.90;99.90;;;;;;6183936;23;19908;-85
2021/10/30 01:35:35;;;;;;;;;;;13.90;99.90;;;;;;6183951;23;20349;-85
2021/10/30 01:38:02;;;;;;;;;;;13.90;99.90;;;;;;6183466;23;19983;-85
2021/10/30 01:40:28;;;;;;;;;;;13.90;99.90;;;;;;6181969;23;19947;-86
2021/10/30 01:42:58;;;;;;;;;;;13.90;99.90;;;;;;6183630;23;19904;-86
2021/10/30 01:45:24;;;;;;;;;;;13.90;99.90;;;;;;6183619;23;19900;-86
2021/10/30 01:47:50;;;;;;;;;;;13.80;99.90;;;;;;6183742;23;19978;-86
2021/10/30 01:50:15;;;;;;;;;;;13.80;99.90;;;;;;6183643;23;19904;-85
2021/10/30 01:52:41;;;;;;;;;;;13.80;99.90;;;;;;6181854;23;20274;-86
2021/10/30 01:55:11;;;;;;;;;;;13.80;99.90;;;;;;6183607;23;19907;-86
2021/10/30 01:57:36;;;;;;;;;;;13.80;99.90;;;;;;6183610;23;19907;-86
2021/10/30 02:00:06;;;;;;;;;;;13.70;99.90;;;;;;6182938;23;19979;-86
2021/10/30 02:02:31;;;;;;;;;;;13.70;99.90;;;;;;6183447;23;19901;-86
2021/10/30 02:04:57;;;;;;;;;;;13.70;99.90;;;;;;6181899;23;19900;-86
2021/10/30 02:07:23;;;;;;;;;;;13.60;99.90;;;;;;6183187;23;19947;-86
2021/10/30 02:09:48;;;;;;;;;;;13.60;99.90;;;;;;6183673;23;19904;-86
2021/10/30 02:12:14;;;;;;;;;;;13.60;99.90;;;;;;6183527;23;19908;-86
2021/10/30 02:14:40;;;;;;;;;;;13.70;99.90;;;;;;6181642;23;19932;-85
2021/10/30 02:17:05;;;;;;;;;;;13.70;99.90;;;;;;6183774;23;20270;-87
2021/10/30 02:19:31;;;;;;;;;;;13.70;99.90;;;;;;6157160;23;19987;-86
2021/10/30 02:21:56;;;;;;;;;;;13.80;99.90;;;;;;6181730;23;19907;-86
2021/10/30 02:24:22;;;;;;;;;;;13.70;99.90;;;;;;6183284;23;19907;-86
2021/10/30 02:26:49;;;;;;;;;;;13.80;99.90;;;;;;6183259;23;19991;-85
2021/10/30 02:29:14;;;;;;;;;;;13.80;99.90;;;;;;6181575;23;19900;-87
2021/10/30 02:31:40;;;;;;;;;;;13.80;99.90;;;;;;6183417;23;19912;-86
2021/10/30 02:34:06;;;;;;;;;;;13.90;99.90;;;;;;6183255;23;19907;-85
2021/10/30 02:36:31;;;;;;;;;;;13.80;99.90;;;;;;6183072;23;19900;-85
2021/10/30 02:38:57;;;;;;;;;;;13.90;99.90;;;;;;6182162;23;19900;-86
2021/10/30 02:41:26;;;;;;;;;;;13.90;99.90;;;;;;6182993;23;19901;-85
2021/10/30 02:43:51;;;;;;;;;;;14.00;99.90;;;;;;6181348;23;19991;-86
2021/10/30 02:46:17;;;;;;;;;;;14.00;99.90;;;;;;6183255;23;19932;-86
2021/10/30 02:48:43;;;;;;;;;;;14.00;99.90;;;;;;6156715;23;19900;-85
2021/10/30 02:51:08;;;;;;;;;;;14.00;99.90;;;;;;6183008;23;19979;-85
2021/10/30 02:53:34;;;;;;;;;;;14.10;99.90;;;;;;6183314;23;20426;-86
2021/10/30 02:55:59;;;;;;;;;;;14.20;99.90;;;;;;6182955;23;19904;-85
2021/10/30 02:58:25;;;;;;;;;;;14.20;99.90;;;;;;6182814;23;19950;-86
2021/10/30 03:00:51;;;;;;;;;;;14.20;99.90;;;;;;6182732;23;19954;-89
2021/10/30 03:03:16;;;;;;;;;;;14.20;99.90;;;;;;6182993;23;20261;-88
2021/10/30 03:05:42;;;;;;;;;;;14.20;99.90;;;;;;6184070;23;20222;-90
2021/10/30 03:08:07;;;;;;;;;;;14.20;99.90;;;;;;6181151;23;19907;-89
2021/10/30 03:10:33;;;;;;;;;;;14.30;99.90;;;;;;6181333;23;19900;-89
2021/10/30 03:12:59;;;;;;;;;;;14.30;99.90;;;;;;6182811;23;19932;-90
2021/10/30 03:15:24;;;;;;;;;;;14.30;99.90;;;;;;6182688;23;19908;-86
2021/10/30 03:17:50;;;;;;;;;;;14.30;99.90;;;;;;6180972;23;19904;-86
2021/10/30 03:20:15;;;;;;;;;;;14.30;99.90;;;;;;6182818;23;19916;-85
2021/10/30 03:22:41;;;;;;;;;;;14.30;99.90;;;;;;6182812;23;19979;-86
2021/10/30 03:25:07;;;;;;;;;;;14.30;99.90;;;;;;6156294;23;19900;-85
2021/10/30 03:27:32;;;;;;;;;;;14.30;99.90;;;;;;6182814;23;19916;-85
2021/10/30 03:29:58;;;;;;;;;;;14.40;99.90;;;;;;6182646;23;19928;-85
2021/10/30 03:32:24;;;;;;;;;;;14.40;99.90;;;;;;6182663;23;19962;-85
2021/10/30 03:34:49;;;;;;;;;;;14.50;99.90;;;;;;6182825;23;20498;-85
2021/10/30 03:37:15;;;;;;;;;;;14.50;99.90;;;;;;6182653;23;20318;-86
2021/10/30 03:39:40;;;;;;;;;;;14.50;99.90;;;;;;6182106;23;20241;-85
2021/10/30 03:42:06;;;;;;;;;;;14.50;99.90;;;;;;6182874;23;19922;-85
2021/10/30 03:44:32;;;;;;;;;;;14.50;99.90;;;;;;6182934;23;19900;-86
2021/10/30 03:46:58;;;;;;;;;;;14.50;99.90;;;;;;6182756;23;19978;-85
2021/10/30 03:49:23;;;;;;;;;;;14.60;99.90;;;;;;6182480;23;19971;-86
2021/10/30 03:51:49;;;;;;;;;;;14.60;99.90;;;;;;6180743;23;19946;-86
2021/10/30 03:54:14;;;;;;;;;;;14.60;99.90;;;;;;6182091;23;19900;-86
2021/10/30 03:56:40;;;;;;;;;;;14.60;99.90;;;;;;6182293;23;19904;-86
2021/10/30 03:59:06;;;;;;;;;;;14.60;99.90;;;;;;6182445;23;20238;-86
2021/10/30 04:01:31;;;;;;;;;;;14.60;99.90;;;;;;6182356;23;20360;-85
2021/10/30 04:03:57;;;;;;;;;;;14.70;99.90;;;;;;6182373;23;20322;-85
2021/10/30 04:06:22;;;;;;;;;;;14.70;99.90;;;;;;6182168;23;19900;-86
2021/10/30 04:08:48;;;;;;;;;;;14.70;99.90;;;;;;6181785;23;19915;-87
2021/10/30 04:11:14;;;;;;;;;;;14.70;99.90;;;;;;6180536;23;19912;-85
2021/10/30 04:13:39;;;;;;;;;;;14.70;99.90;;;;;;6180264;23;19927;-86
2021/10/30 04:16:05;;;;;;;;;;;14.80;99.90;;;;;;6182544;23;19954;-86
2021/10/30 04:18:30;;;;;;;;;;;14.80;99.90;;;;;;6182445;23;19923;-86
2021/10/30 04:20:56;;;;;;;;;;;14.80;99.90;;;;;;6182242;23;19935;-86
2021/10/30 04:23:21;;;;;;;;;;;14.80;99.90;;;;;;6182349;23;19900;-86
2021/10/30 04:25:47;;;;;;;;;;;14.70;99.90;;;;;;6182120;23;19907;-86
2021/10/30 04:28:12;;;;;;;;;;;14.80;99.90;;;;;;6180161;23;19943;-85
2021/10/30 04:30:38;;;;;;;;;;;14.70;99.90;;;;;;6181977;23;19900;-86
2021/10/30 04:33:05;;;;;;;;;;;14.70;99.90;;;;;;6180618;23;20379;-86
2021/10/30 04:35:32;;;;;;;;;;;14.70;99.90;;;;;;6182089;23;19920;-86
2021/10/30 04:37:58;;;;;;;;;;;14.70;99.90;;;;;;6182148;23;19900;-85
2021/10/30 04:40:23;;;;;;;;;;;14.70;99.90;;;;;;6182191;23;19982;-86
2021/10/30 04:42:49;;;;;;;;;;;14.70;99.90;;;;;;6180609;23;19900;-86
2021/10/30 04:45:14;;;;;;;;;;;14.60;99.90;;;;;;6180182;23;19900;-86
2021/10/30 04:47:40;;;;;;;;;;;14.60;99.90;;;;;;6182368;23;20293;-86
2021/10/30 04:50:05;;;;;;;;;;;14.60;99.90;;;;;;6182246;23;20587;-86
2021/10/30 04:52:32;;;;;;;;;;;14.60;99.90;;;;;;6180513;23;19908;-86
2021/10/30 04:54:57;;;;;;;;;;;14.60;99.90;;;;;;6180394;23;20326;-86
2021/10/30 04:57:23;;;;;;;;;;;14.60;99.90;;;;;;6182304;23;19943;-86
2021/10/30 04:59:48;;;;;;;;;;;14.60;99.90;;;;;;6181773;23;20386;-85
2021/10/30 05:02:14;;;;;;;;;;;14.60;99.90;;;;;;6183850;23;19923;-85
2021/10/30 05:04:40;;;;;;;;;;;14.60;99.90;;;;;;6183865;23;19907;-86
2021/10/30 05:07:05;;;;;;;;;;;14.70;99.90;;;;;;6182221;23;19920;-86
2021/10/30 05:09:31;;;;;;;;;;;14.60;99.90;;;;;;6183645;23;19979;-85
2021/10/30 05:11:57;;;;;;;;;;;14.60;99.90;;;;;;6182132;23;19920;-85
2021/10/30 05:14:22;;;;;;;;;;;14.70;99.90;;;;;;6183508;23;19958;-86
2021/10/30 05:16:48;;;;;;;;;;;14.60;99.90;;;;;;6182304;23;19915;-86
2021/10/30 05:19:15;;;;;;;;;;;14.60;99.90;;;;;;6183790;23;19907;-86
2021/10/30 05:21:41;;;;;;;;;;;14.60;99.90;;;;;;6183763;23;19928;-85
2021/10/30 05:24:07;;;;;;;;;;;14.60;99.90;;;;;;6182016;23;19907;-85
2021/10/30 05:26:33;;;;;;;;;;;14.60;99.90;;;;;;6181834;23;19947;-85
2021/10/30 05:28:58;;;;;;;;;;;14.60;99.90;;;;;;6183615;23;20309;-86
2021/10/30 05:31:24;;;;;;;;;;;14.60;99.90;;;;;;6182165;23;19908;-86
2021/10/30 05:33:49;;;;;;;;;;;14.60;99.90;;;;;;6182110;23;20028;-85
2021/10/30 05:36:16;;;;;;;;;;;14.50;99.90;;;;;;6183492;23;19900;-85
2021/10/30 05:38:47;;;;;;;;;;;14.50;99.90;;;;;;6184108;23;19972;-85
2021/10/30 05:41:13;;;;;;;;;;;14.40;99.90;;;;;;6183757;23;19900;-85
2021/10/30 05:43:39;;;;;;;;;;;14.40;99.90;;;;;;6183875;23;19920;-85
2021/10/30 05:46:06;;;;;;;;;;;14.40;99.90;;;;;;6184113;23;19908;-85
2021/10/30 05:48:32;;;;;;;;;;;14.40;99.90;;;;;;6184054;23;19901;-84
2021/10/30 05:50:58;;;;;;;;;;;14.40;99.90;;;;;;6182169;23;19913;-85
2021/10/30 05:53:23;;;;;;;;;;;14.40;99.90;;;;;;6183784;23;19904;-86
2021/10/30 05:55:49;;;;;;;;;;;14.50;99.90;;;;;;6183456;23;19900;-88
2021/10/30 05:58:14;;;;;;;;;;;14.50;99.90;;;;;;6183492;23;19900;-86
2021/10/30 06:00:40;;;;;;;;;;;14.50;99.90;;;;;;6185253;23;19900;-87
2021/10/30 06:03:06;;;;;;;;;;;14.60;99.90;;;;;;6183017;23;19907;-88
2021/10/30 06:05:31;;;;;;;;;;;14.60;99.90;;;;;;6182995;23;19907;-86
2021/10/30 06:07:58;;;;;;;;;;;14.60;99.90;;;;;;6182891;23;19900;-89
2021/10/30 06:10:24;;;;;;;;;;;14.60;99.90;;;;;;6181486;23;19982;-87
2021/10/30 06:12:50;;;;;;;;;;;14.60;99.90;;;;;;6181883;23;20241;-87
2021/10/30 06:15:15;;;;;;;;;;;14.60;99.90;;;;;;6185358;23;19896;-88
2021/10/30 06:17:41;;;;;;;;;;;14.70;99.90;;;;;;6187145;23;19896;-88
2021/10/30 06:20:07;;;;;;;;;;;14.60;99.90;;;;;;6183010;23;19907;-88
2021/10/30 06:22:33;;;;;;;;;;;14.60;99.90;;;;;;6183843;23;19900;-87
2021/10/30 06:24:58;;;;;;;;;;;14.60;99.90;;;;;;6186463;23;19900;-87
2021/10/30 06:27:24;;;;;;;;;;;14.60;99.90;;;;;;6186149;23;20269;-88
2021/10/30 06:29:50;;;;;;;;;;;14.50;99.90;;;;;;6210723;23;19908;-87
2021/10/30 06:32:15;;;;;;;;;;;14.50;99.90;;;;;;6209397;23;19919;-87
2021/10/30 06:34:41;;;;;;;;;;;14.50;99.90;;;;;;6210767;23;19904;-86
2021/10/30 06:37:07;;;;;;;;;;;14.50;99.90;;;;;;6201912;23;19899;-90
2021/10/30 06:39:33;;;;;;;;;;;14.50;99.90;;;;;;6182849;23;19907;-88
2021/10/30 06:41:58;;;;;;;;;;;14.50;99.90;;;;;;6182704;23;19975;-88
2021/10/30 06:44:24;;;;;;;;;;;14.40;99.90;;;;;;6182378;23;19910;-87
2021/10/30 06:46:51;;;;;;;;;;;14.40;99.90;;;;;;6182872;23;19975;-88
2021/10/30 06:49:17;;;;;;;;;;;14.40;99.90;;;;;;6182795;23;20318;-87
2021/10/30 06:51:45;;;;;;;;;;;14.40;99.90;;;;;;6182780;23;20038;-87
2021/10/30 06:54:10;;;;;;;;;;;14.40;99.90;;;;;;6197788;23;19900;-88
2021/10/30 06:56:37;;;;;;;;;;;14.50;99.90;;;;;;6183894;23;19979;-88
2021/10/30 06:59:03;;;;;;;;;;;14.50;99.90;;;;;;6183301;23;20082;-88
2021/10/30 07:01:29;;;;;;;;;;;14.60;99.90;;;;;;6184193;23;19900;-88
2021/10/30 07:03:55;;;;;;;;;;;14.60;99.90;;;;;;6183690;23;20385;-88
2021/10/30 07:06:20;;;;;;;;;;;14.60;99.90;;;;;;6182159;23;19904;-89
2021/10/30 07:08:46;;;;;;;;;;;14.70;99.90;;;;;;6157167;23;20038;-88
2021/10/30 07:11:11;;;;;;;;;;;14.70;99.90;;;;;;6181523;23;19908;-87
2021/10/30 07:13:37;;;;;;;;;;;14.70;99.90;;;;;;6183290;23;19900;-88
2021/10/30 07:16:02;;;;;;;;;;;14.60;99.90;;;;;;6183493;23;20245;-87
2021/10/30 07:18:28;;;;;;;;;;;14.70;99.90;;;;;;6183423;23;20149;-88
2021/10/30 07:20:54;;;;;;;;;;;14.60;99.90;;;;;;6182775;23;20317;-88
2021/10/30 07:23:19;;;;;;;;;;;14.70;99.90;;;;;;6181477;23;20277;-88
2021/10/30 07:25:45;;;;;;;;;;;14.70;99.90;;;;;;6182811;23;19900;-88
2021/10/30 07:28:11;;;;;;;;;;;14.60;99.90;;;;;;6182851;23;19927;-86
2021/10/30 07:30:37;;;;;;;;;;;14.60;99.90;;;;;;6181824;23;20333;-87
2021/10/30 07:33:02;;;;;;;;;;;14.60;99.90;;;;;;6182479;23;19911;-87
2021/10/30 07:35:29;;;;;;;;;;;14.60;99.90;;;;;;6182706;23;20055;-86
2021/10/30 07:37:58;;;;;;;;;;;14.60;99.90;;;;;;6182324;23;19900;-86
2021/10/30 07:40:24;;;;;;;;;;;14.50;99.90;;;;;;6182668;23;20322;-86
2021/10/30 07:42:50;;;;;;;;;;;14.50;99.90;;;;;;6182270;23;20331;-85
2021/10/30 07:45:16;;;;;;;;;;;14.60;99.90;;;;;;6182275;23;19946;-86
2021/10/30 07:47:41;;;;;;;;;;;14.70;99.90;;;;;;6182237;23;19983;-86
2021/10/30 07:50:07;;;;;;;;;;;14.70;99.90;;;;;;6155306;23;20314;-86
2021/10/30 07:52:33;;;;;;;;;;;14.90;99.90;;;;;;6180395;23;19957;-85
2021/10/30 07:54:58;;;;;;;;;;;15.00;99.90;;;;;;6182272;23;19900;-86
2021/10/30 07:57:24;;;;;;;;;;;15.00;99.90;;;;;;6182678;23;20146;-87
2021/10/30 07:59:50;;;;;;;;;;;15.10;99.90;;;;;;6180603;23;20333;-84
2021/10/30 08:02:17;;;;;;;;;;;15.20;99.90;;;;;;6182068;23;19907;-86
2021/10/30 08:04:43;;;;;;;;;;;15.30;99.90;;;;;;6182270;23;19900;-84
2021/10/30 08:07:08;;;;;;;;;;;15.30;99.90;;;;;;6182568;23;20396;-85
2021/10/30 08:09:34;;;;;;;;;;;15.30;99.90;;;;;;6180788;23;20273;-85
2021/10/30 08:12:00;;;;;;;;;;;15.30;99.90;;;;;;6180730;23;20323;-86
2021/10/30 08:14:25;;;;;;;;;;;15.30;99.90;;;;;;6182180;23;19900;-86
2021/10/30 08:16:51;;;;;;;;;;;15.40;99.90;;;;;;6182586;23;20334;-86
2021/10/30 08:19:17;;;;;;;;;;;15.50;99.90;;;;;;6182223;23;19907;-86
2021/10/30 08:21:42;;;;;;;;;;;15.60;99.90;;;;;;6180378;23;19900;-86
2021/10/30 08:24:08;;;;;;;;;;;15.50;99.90;;;;;;6182456;23;19900;-86
2021/10/30 08:26:35;;;;;;;;;;;15.40;99.90;;;;;;6181919;23;19979;-86
2021/10/30 08:29:01;;;;;;;;;;;15.30;99.90;;;;;;6182053;23;19904;-86
2021/10/30 08:31:26;;;;;;;;;;;15.30;99.90;;;;;;6182194;23;20300;-87
2021/10/30 08:33:53;;;;;;;;;;;15.50;99.90;;;;;;6182136;23;19928;-86
2021/10/30 08:36:19;;;;;;;;;;;15.70;99.90;;;;;;6183638;23;19907;-87
2021/10/30 08:38:44;;;;;;;;;;;15.90;99.90;;;;;;6157441;23;19904;-87
2021/10/30 08:41:10;;;;;;;;;;;16.00;99.90;;;;;;6184310;23;19931;-87
2021/10/30 08:43:35;;;;;;;;;;;16.00;99.90;;;;;;6183727;23;19901;-86
2021/10/30 08:46:02;;;;;;;;;;;16.00;99.90;;;;;;6182484;23;19986;-87
2021/10/30 08:48:31;;;;;;;;;;;15.90;99.90;;;;;;6184227;23;19900;-87
2021/10/30 08:50:58;;;;;;;;;;;15.80;99.90;;;;;;6183947;23;19910;-87
2021/10/30 08:53:24;;;;;;;;;;;15.70;99.90;;;;;;6184106;23;19983;-86
2021/10/30 08:55:50;;;;;;;;;;;15.70;99.90;;;;;;6182741;23;19900;-86
2021/10/30 08:58:17;;;;;;;;;;;15.80;99.90;;;;;;6181940;23;19976;-86
2021/10/30 09:00:44;;;;;;;;;;;15.70;99.90;;;;;;6189883;23;19904;-86
2021/10/30 09:03:10;;;;;;;;;;;15.70;99.90;;;;;;6187308;23;19935;-88
2021/10/30 09:05:37;;;;;;;;;;;15.70;99.90;;;;;;6193089;23;19955;-87
2021/10/30 09:08:04;;;;;;;;;;;15.90;99.90;;;;;;6185029;23;20354;-85
2021/10/30 09:10:32;;;;;;;;;;;15.90;99.90;;;;;;6189077;23;20244;-85
2021/10/30 09:12:58;;;;;;;;;;;16.00;99.90;;;;;;6189979;23;20076;-86
2021/10/30 09:15:30;;;;;;;;;;;16.00;99.90;;;;;;6191232;23;19923;-86
2021/10/30 09:17:56;;;;;;;;;;;16.00;99.90;;;;;;6188022;23;19900;-86
2021/10/30 09:20:29;;;;;;;;;;;16.10;99.90;;;;;;6163062;23;20198;-86
2021/10/30 09:22:54;;;;;;;;;;;16.10;99.90;;;;;;6185560;23;19900;-86
2021/10/30 09:25:20;;;;;;;;;;;16.10;99.90;;;;;;6190590;23;20100;-86
2021/10/30 09:27:50;;;;;;;;;;;16.20;99.90;;;;;;6191736;23;19936;-86
2021/10/30 09:30:19;;;;;;;;;;;16.30;99.90;;;;;;6185995;23;19955;-87
2021/10/30 09:32:54;;;;;;;;;;;16.40;99.90;;;;;;6186096;23;19915;-87
2021/10/30 09:35:29;;;;;;;;;;;16.40;99.90;;;;;;6189669;23;19900;-87
2021/10/30 09:37:55;;;;;;;;;;;16.40;99.90;;;;;;6185703;23;19927;-86
2021/10/30 09:40:22;;;;;;;;;;;16.40;99.90;;;;;;6184448;23;19990;-86
2021/10/30 09:43:05;;;;;;;;;;;16.50;99.90;;;;;;6183207;23;19907;-88
2021/10/30 09:45:31;;;;;;;;;;;16.60;99.90;;;;;;6189007;23;19927;-87
2021/10/30 09:48:02;;;;;;;;;;;16.60;99.90;;;;;;6186386;23;19912;-86
2021/10/30 09:50:29;;;;;;;;;;;16.60;99.90;;;;;;6189720;23;19955;-87
2021/10/30 09:52:59;;;;;;;;;;;16.70;99.90;;;;;;6194401;23;19935;-86
2021/10/30 09:55:26;;;;;;;;;;;16.70;99.90;;;;;;6194357;23;19903;-86
2021/10/30 09:57:59;;;;;;;;;;;16.80;99.90;;;;;;6192369;23;19896;-87
2021/10/30 10:00:25;;;;;;;;;;;16.90;99.90;;;;;;6193326;23;19911;-86
2021/10/30 10:02:54;;;;;;;;;;;17.00;99.90;;;;;;6194014;23;19911;-87
2021/10/30 10:05:20;;;;;;;;;;;17.10;99.90;;;;;;6194314;23;19912;-86
2021/10/30 10:07:47;;;;;;;;;;;17.10;99.90;;;;;;6188291;23;20211;-87
2021/10/30 10:10:13;;;;;;;;;;;17.20;99.90;;;;;;6185960;23;19907;-86
2021/10/30 10:12:38;;;;;;;;;;;17.30;99.90;;;;;;6188429;23;19908;-86
2021/10/30 10:15:04;;;;;;;;;;;17.40;99.90;;;;;;6186662;23;20297;-87
2021/10/30 10:17:31;;;;;;;;;;;17.50;99.90;;;;;;6186247;23;19983;-86
2021/10/30 10:19:57;;;;;;;;;;;17.60;99.90;;;;;;6188865;23;19936;-85
2021/10/30 10:22:24;;;;;;;;;;;17.70;99.90;;;;;;6185886;23;19900;-87
2021/10/30 10:24:50;;;;;;;;;;;17.70;99.90;;;;;;6183641;23;19900;-86
2021/10/30 10:27:15;;;;;;;;;;;17.60;99.90;;;;;;6184696;23;19955;-86
2021/10/30 10:29:53;;;;;;;;;;;17.20;99.90;;;;;;6187421;23;19908;-86
2021/10/30 10:32:23;;;;;;;;;;;17.00;99.90;;;;;;6186064;23;20184;-85
2021/10/30 10:34:49;;;;;;;;;;;16.90;99.90;;;;;;6187842;23;19962;-86
2021/10/30 10:37:20;;;;;;;;;;;16.80;99.90;;;;;;6186348;23;20108;-86
2021/10/30 10:39:58;;;;;;;;;;;16.80;99.90;;;;;;6186751;23;19979;-86
2021/10/30 10:42:33;;;;;;;;;;;16.70;99.90;;;;;;6186332;23;19979;-87
2021/10/30 10:45:00;;;;;;;;;;;16.70;99.90;;;;;;6185453;23;19907;-86
2021/10/30 10:47:34;;;;;;;;;;;16.60;99.90;;;;;;6186755;23;19896;-87
2021/10/30 10:50:22;;;;;;;;;;;16.70;99.90;;;;;;6185687;23;20119;-87
2021/10/30 10:53:03;;;;;;;;;;;16.80;99.90;;;;;;6193885;23;19942;-85
2021/10/30 10:55:29;;;;;;;;;;;16.80;99.90;;;;;;6193383;23;19904;-87
2021/10/30 10:58:21;;;;;;;;;;;17.00;99.90;;;;;;6191530;23;19901;-87
2021/10/30 11:01:07;;;;;;;;;;;17.20;99.90;;;;;;6183280;23;19931;-86
2021/10/30 11:03:39;;;;;;;;;;;17.50;99.90;;;;;;6183159;23;19900;-88
2021/10/30 11:06:05;;;;;;;;;;;17.70;99.90;;;;;;6183278;23;20227;-86
2021/10/30 11:08:33;;;;;;;;;;;17.80;99.90;;;;;;6187217;23;19991;-86
2021/10/30 11:11:15;;;;;;;;;;;17.70;99.90;;;;;;6186379;23;20304;-86
2021/10/30 11:13:50;;;;;;;;;;;17.30;99.90;;;;;;6185105;23;19908;-86
2021/10/30 11:16:22;;;;;;;;;;;17.20;99.90;;;;;;6184950;23;19904;-88
2021/10/30 11:18:59;;;;;;;;;;;17.00;99.90;;;;;;6184101;23;20091;-87
2021/10/30 11:21:31;;;;;;;;;;;17.10;99.90;;;;;;6183163;23;20229;-87
2021/10/30 11:23:58;;;;;;;;;;;17.00;99.90;;;;;;6183352;23;20266;-86
2021/10/30 11:26:26;;;;;;;;;;;17.00;99.90;;;;;;6185751;23;19896;-86
2021/10/30 11:28:52;;;;;;;;;;;16.90;99.90;;;;;;6184011;23;20272;-88
2021/10/30 11:31:19;;;;;;;;;;;17.00;99.90;;;;;;6185857;23;19908;-86
2021/10/30 11:33:57;;;;;;;;;;;17.00;99.90;;;;;;6184808;23;19939;-86
2021/10/30 11:36:26;;;;;;;;;;;17.10;99.90;;;;;;6185127;23;20504;-87
2021/10/30 11:38:53;;;;;;;;;;;17.30;99.90;;;;;;6184638;23;19900;-86
2021/10/30 11:41:23;;;;;;;;;;;17.40;99.90;;;;;;6184196;23;20321;-86
2021/10/30 11:43:49;;;;;;;;;;;17.30;99.90;;;;;;6183443;23;19900;-87
2021/10/30 11:46:16;;;;;;;;;;;17.20;99.90;;;;;;6186227;23;20338;-86
2021/10/30 11:48:41;;;;;;;;;;;17.10;99.90;;;;;;6183896;23;19907;-85
2021/10/30 11:51:11;;;;;;;;;;;17.10;99.90;;;;;;6159561;23;19904;-86
2021/10/30 11:53:37;;;;;;;;;;;17.00;99.90;;;;;;6183625;23;19911;-86
2021/10/30 11:56:08;;;;;;;;;;;16.90;99.90;;;;;;6185485;23;19900;-87
2021/10/30 11:58:38;;;;;;;;;;;16.80;99.90;;;;;;6184156;23;19901;-87
2021/10/30 12:01:21;;;;;;;;;;;16.60;99.90;;;;;;6190085;23;20223;-87
2021/10/30 12:04:06;;;;;;;;;;;16.70;99.90;;;;;;6187699;23;20144;-87
2021/10/30 12:06:32;;;;;;;;;;;16.90;99.90;;;;;;6188122;23;20110;-87
2021/10/30 12:08:58;;;;;;;;;;;17.20;99.90;;;;;;6188891;23;19900;-86
2021/10/30 12:11:27;;;;;;;;;;;17.20;99.90;;;;;;6191525;23;20306;-87
2021/10/30 12:13:57;;;;;;;;;;;17.20;99.90;;;;;;6190014;23;20108;-87
2021/10/30 12:16:24;;;;;;;;;;;17.20;99.90;;;;;;6188052;23;19936;-86
2021/10/30 12:18:50;;;;;;;;;;;17.10;99.90;;;;;;6188999;23;19936;-87
2021/10/30 12:21:17;;;;;;;;;;;17.10;99.90;;;;;;6187449;23;20062;-86
2021/10/30 12:23:52;;;;;;;;;;;17.30;99.90;;;;;;6186785;23;20123;-86
2021/10/30 12:26:18;;;;;;;;;;;17.50;99.90;;;;;;6186289;23;20041;-86
2021/10/30 12:28:43;;;;;;;;;;;17.80;99.90;;;;;;6188673;23;20024;-86
2021/10/30 12:31:12;;;;;;;;;;;17.80;99.90;;;;;;6187510;23;20306;-87
2021/10/30 12:33:38;;;;;;;;;;;17.80;99.90;;;;;;6185681;23;19896;-88
2021/10/30 12:36:05;;;;;;;;;;;17.80;99.90;;;;;;6187920;23;20203;-87
2021/10/30 12:38:30;;;;;;;;;;;17.70;99.90;;;;;;6188530;23;19904;-86
2021/10/30 12:40:56;;;;;;;;;;;17.50;99.90;;;;;;6188650;23;19901;-86
2021/10/30 12:43:22;;;;;;;;;;;17.50;99.90;;;;;;6188944;23;20337;-87
2021/10/30 12:45:49;;;;;;;;;;;17.60;99.90;;;;;;6183823;23;19911;-86
2021/10/30 12:48:20;;;;;;;;;;;17.60;99.90;;;;;;6181056;23;20337;-88
2021/10/30 12:50:59;;;;;;;;;;;17.70;99.90;;;;;;6182965;23;19904;-87
2021/10/30 12:53:26;;;;;;;;;;;17.80;99.90;;;;;;6183608;23;19960;-87
2021/10/30 12:56:08;;;;;;;;;;;17.90;99.90;;;;;;6183170;23;19967;-87
2021/10/30 12:58:54;;;;;;;;;;;17.80;99.90;;;;;;6183357;23;19904;-87
2021/10/30 13:01:21;;;;;;;;;;;17.90;99.90;;;;;;6181290;23;19900;-87
2021/10/30 13:03:58;;;;;;;;;;;18.00;99.90;;;;;;6181796;23;19955;-87
2021/10/30 13:06:25;;;;;;;;;;;18.10;99.90;;;;;;6182057;23;19931;-88
2021/10/30 13:08:52;;;;;;;;;;;18.50;99.90;;;;;;6183534;23;19900;-88
2021/10/30 13:11:18;;;;;;;;;;;18.70;99.90;;;;;;6184934;23;19999;-87
2021/10/30 13:13:45;;;;;;;;;;;19.00;99.90;;;;;;6185527;23;20152;-87
2021/10/30 13:16:11;;;;;;;;;;;19.10;99.90;;;;;;6183316;23;19934;-87
2021/10/30 13:18:36;;;;;;;;;;;18.80;99.90;;;;;;6184368;23;19900;-86
2021/10/30 13:21:02;;;;;;;;;;;18.60;99.90;;;;;;6183976;23;20226;-87
2021/10/30 13:23:28;;;;;;;;;;;18.40;99.90;;;;;;6185830;23;19904;-86
2021/10/30 13:25:53;;;;;;;;;;;18.10;99.90;;;;;;6186061;23;19971;-86
2021/10/30 13:28:19;;;;;;;;;;;17.90;99.90;;;;;;6184858;23;19919;-86
2021/10/30 13:30:45;;;;;;;;;;;17.80;99.90;;;;;;6185672;23;19907;-87
2021/10/30 13:33:11;;;;;;;;;;;17.80;99.90;;;;;;6185799;23;19904;-87
2021/10/30 13:35:36;;;;;;;;;;;17.80;99.90;;;;;;6185211;23;19954;-85
2021/10/30 13:38:05;;;;;;;;;;;17.60;99.90;;;;;;6184859;23;20340;-85
2021/10/30 13:40:31;;;;;;;;;;;17.70;99.90;;;;;;6186292;23;19951;-86
2021/10/30 13:42:57;;;;;;;;;;;17.80;99.90;;;;;;6185215;23;19911;-86
2021/10/30 13:45:22;;;;;;;;;;;18.00;99.90;;;;;;6183806;23;19979;-85
2021/10/30 13:47:48;;;;;;;;;;;18.00;99.90;;;;;;6185966;23;19907;-85
2021/10/30 13:50:14;;;;;;;;;;;17.90;99.90;;;;;;6186623;23;19908;-85
2021/10/30 13:52:40;;;;;;;;;;;17.70;99.90;;;;;;6185826;23;19908;-85
2021/10/30 13:55:05;;;;;;;;;;;17.80;99.90;;;;;;6183897;23;19900;-85
2021/10/30 13:57:31;;;;;;;;;;;17.80;99.90;;;;;;6182528;23;20364;-85
2021/10/30 13:59:56;;;;;;;;;;;17.90;99.90;;;;;;6183529;23;20100;-86
2021/10/30 14:02:22;;;;;;;;;;;17.90;99.90;;;;;;6184338;23;20329;-85
2021/10/30 14:04:47;;;;;;;;;;;18.00;99.90;;;;;;6184507;23;20342;-85
2021/10/30 14:07:13;;;;;;;;;;;18.20;99.90;;;;;;6185007;23;19979;-85
2021/10/30 14:09:39;;;;;;;;;;;18.20;99.90;;;;;;6184683;23;19915;-86
2021/10/30 14:12:04;;;;;;;;;;;18.10;99.90;;;;;;6184415;23;19912;-86
2021/10/30 14:14:30;;;;;;;;;;;18.10;99.90;;;;;;6183605;23;19911;-86